Terminal Aerodrome Forecast
Issued by NWS Shreveport, LA

Home | Current Version | Previous Version | Text Only | Print | Product List | Glossary On
Versions: 1 2 3 4 5 6 7 8 9 10 11 12 13 14 15 16 17 18
520
FTUS44 KSHV 251723
TAFGGG
TAF
KGGG 251723Z 2518/2618 18012G18KT P6SM BKN035
      TEMPO 2518/2519 BKN025
     FM260000 16008KT P6SM FEW040 BKN250
     FM260800 16008KT P6SM OVC015
     FM261600 16013G22KT P6SM BKN035=

USA.gov is the U.S. government's official web portal to all federal, state and local government web resources and services.